Time;durP1;ratioP1;P1;durP2;ratioP2;P2;SDS_P1;SDS_P2;PMS_P1;PMS_P2;Temp;Humidity;BMP_temperature;BMP_pressure;BME280_temperature;BME280_humidity;BME280_pressure;Samples;Min_cycle;Max_cycle;Signal;HPM_P1;HPM_P2
2022/10/08 00:00:45;;;;;;;37.72;26.08;;;;;;;;;;5109260;28;20134;-77
2022/10/08 00:03:13;;;;;;;36.03;25.42;;;;;;;;;;5109890;28;20047;-77
2022/10/08 00:05:40;;;;;;;37.60;25.27;;;;;;;;;;5109517;28;20070;-77
2022/10/08 00:08:08;;;;;;;39.28;25.70;;;;;;;;;;5114124;27;20051;-77
2022/10/08 00:10:36;;;;;;;36.15;25.58;;;;;;;;;;5113469;27;20520;-77
2022/10/08 00:13:04;;;;;;;35.47;24.38;;;;;;;;;;5128520;27;20069;-77
2022/10/08 00:15:35;;;;;;;32.72;23.02;;;;;;;;;;5110184;27;20050;-77
2022/10/08 00:18:03;;;;;;;42.08;25.58;;;;;;;;;;5109429;28;20036;-77
2022/10/08 00:20:30;;;;;;;42.92;26.73;;;;;;;;;;5109021;28;20039;-77
2022/10/08 00:22:57;;;;;;;38.20;25.92;;;;;;;;;;5107720;28;20525;-77
2022/10/08 00:25:24;;;;;;;41.15;26.92;;;;;;;;;;5116704;28;20474;-77
2022/10/08 00:27:52;;;;;;;41.60;26.67;;;;;;;;;;5108490;28;20485;-77
2022/10/08 00:30:19;;;;;;;39.17;26.58;;;;;;;;;;5093434;28;20040;-77
2022/10/08 00:32:46;;;;;;;34.25;23.90;;;;;;;;;;5096806;28;20050;-77
2022/10/08 00:35:14;;;;;;;36.50;24.52;;;;;;;;;;5107710;28;20167;-77
2022/10/08 00:37:41;;;;;;;36.97;24.42;;;;;;;;;;5108274;28;20131;-77
2022/10/08 00:40:09;;;;;;;33.88;23.15;;;;;;;;;;5107193;28;20069;-77
2022/10/08 00:42:37;;;;;;;36.72;24.33;;;;;;;;;;5115309;28;20039;-77
2022/10/08 00:45:05;;;;;;;33.40;22.88;;;;;;;;;;5108187;28;20081;-77
2022/10/08 00:47:32;;;;;;;33.22;22.48;;;;;;;;;;5091511;28;20051;-76
2022/10/08 00:50:05;;;;;;;34.97;23.33;;;;;;;;;;5112617;28;20126;-77
2022/10/08 00:52:34;;;;;;;33.22;22.02;;;;;;;;;;5112041;28;20044;-77
2022/10/08 00:55:05;;;;;;;29.88;20.52;;;;;;;;;;5112142;28;20046;-77
2022/10/08 00:57:36;;;;;;;31.27;21.38;;;;;;;;;;5114059;27;20035;-77
2022/10/08 01:00:05;;;;;;;33.97;22.52;;;;;;;;;;5111244;27;20126;-77
2022/10/08 01:02:33;;;;;;;35.20;22.23;;;;;;;;;;5095947;27;20047;-77
2022/10/08 01:05:00;;;;;;;35.25;23.02;;;;;;;;;;5113557;27;20138;-77
2022/10/08 01:07:31;;;;;;;33.40;22.63;;;;;;;;;;5115725;27;20047;-76
2022/10/08 01:10:06;;;;;;;33.03;21.52;;;;;;;;;;5113224;27;20036;-77
2022/10/08 01:12:36;;;;;;;34.95;22.38;;;;;;;;;;5119319;27;20484;-77
2022/10/08 01:15:27;;;;;;;33.53;22.90;;;;;;;;;;5116727;27;20056;-76
2022/10/08 01:18:09;;;;;;;35.47;23.08;;;;;;;;;;5115685;27;20085;-77
2022/10/08 01:21:06;;;;;;;35.15;21.90;;;;;;;;;;5114945;27;20049;-77
2022/10/08 01:23:51;;;;;;;31.83;21.55;;;;;;;;;;5089313;27;20077;-77
2022/10/08 01:26:24;;;;;;;33.83;22.38;;;;;;;;;;5116728;27;20040;-77
2022/10/08 01:28:56;;;;;;;33.70;21.95;;;;;;;;;;5109591;27;20062;-77
2022/10/08 01:31:25;;;;;;;33.00;22.77;;;;;;;;;;5109322;27;20039;-77
2022/10/08 01:34:01;;;;;;;31.05;21.73;;;;;;;;;;5119523;27;20118;-77
2022/10/08 01:36:33;;;;;;;32.17;22.08;;;;;;;;;;5120991;27;20036;-77
2022/10/08 01:39:02;;;;;;;38.53;23.02;;;;;;;;;;5117632;27;20484;-77
2022/10/08 01:41:30;;;;;;;36.65;22.92;;;;;;;;;;5114461;27;20039;-77
2022/10/08 01:44:07;;;;;;;36.10;24.75;;;;;;;;;;5111975;27;20047;-77
2022/10/08 01:46:36;;;;;;;36.50;23.27;;;;;;;;;;5112185;27;20039;-77
2022/10/08 01:49:06;;;;;;;35.30;22.80;;;;;;;;;;5121937;27;20123;-77
2022/10/08 01:51:40;;;;;;;34.13;22.98;;;;;;;;;;5123275;27;20561;-77
2022/10/08 01:54:09;;;;;;;34.25;22.70;;;;;;;;;;5115721;27;20036;-77
2022/10/08 01:56:37;;;;;;;31.80;22.05;;;;;;;;;;5113957;27;20031;-77
2022/10/08 01:59:11;;;;;;;35.83;23.40;;;;;;;;;;5112754;27;20472;-77
2022/10/08 02:01:48;;;;;;;34.03;22.30;;;;;;;;;;5105893;27;20059;-77
2022/10/08 02:04:32;;;;;;;33.35;21.80;;;;;;;;;;5115473;27;20051;-77
2022/10/08 02:07:00;;;;;;;35.13;21.58;;;;;;;;;;5088774;28;20473;-77
2022/10/08 02:09:28;;;;;;;34.30;22.40;;;;;;;;;;5090745;28;20048;-77
2022/10/08 02:11:56;;;;;;;32.53;21.08;;;;;;;;;;5090785;28;20044;-77
2022/10/08 02:14:25;;;;;;;34.50;22.35;;;;;;;;;;5095756;28;20221;-77
2022/10/08 02:16:57;;;;;;;36.92;21.98;;;;;;;;;;5110404;28;20067;-77
2022/10/08 02:19:30;;;;;;;35.72;21.10;;;;;;;;;;5107862;28;20354;-77
2022/10/08 02:21:59;;;;;;;34.25;21.60;;;;;;;;;;5118483;27;20155;-77
2022/10/08 02:24:30;;;;;;;34.35;21.83;;;;;;;;;;5109128;27;20074;-77
2022/10/08 02:26:58;;;;;;;37.83;22.73;;;;;;;;;;5126510;27;20039;-77
2022/10/08 02:29:34;;;;;;;36.33;21.52;;;;;;;;;;5094856;28;20126;-77
2022/10/08 02:32:05;;;;;;;37.05;21.55;;;;;;;;;;5110207;28;20400;-77
2022/10/08 02:34:38;;;;;;;34.38;21.05;;;;;;;;;;5110085;28;20040;-77
2022/10/08 02:37:09;;;;;;;37.55;22.23;;;;;;;;;;5091883;28;20036;-77
2022/10/08 02:39:38;;;;;;;38.08;21.70;;;;;;;;;;5108198;28;20597;-77
2022/10/08 02:42:11;;;;;;;37.33;22.55;;;;;;;;;;5076252;27;20043;-77
2022/10/08 02:44:40;;;;;;;38.25;21.88;;;;;;;;;;5130622;27;20587;-77
2022/10/08 02:47:10;;;;;;;39.70;22.92;;;;;;;;;;5131095;27;20508;-77
2022/10/08 02:49:39;;;;;;;42.88;24.70;;;;;;;;;;5112002;27;20079;-77
2022/10/08 02:52:08;;;;;;;39.42;23.85;;;;;;;;;;5109426;28;20044;-77
2022/10/08 02:54:37;;;;;;;38.55;22.48;;;;;;;;;;5110692;27;20046;-76
2022/10/08 02:57:09;;;;;;;39.33;21.70;;;;;;;;;;5118907;27;20039;-77
2022/10/08 02:59:36;;;;;;;41.55;23.08;;;;;;;;;;5107954;27;20114;-77
2022/10/08 03:02:05;;;;;;;43.15;22.85;;;;;;;;;;5112046;27;20101;-76
2022/10/08 03:04:42;;;;;;;41.83;22.85;;;;;;;;;;5114626;27;20046;-77
2022/10/08 03:07:12;;;;;;;40.30;24.08;;;;;;;;;;5091459;28;20477;-77
2022/10/08 03:09:41;;;;;;;48.90;28.13;;;;;;;;;;5109210;28;20134;-77
2022/10/08 03:12:08;;;;;;;40.63;24.05;;;;;;;;;;5110297;28;20042;-77
2022/10/08 03:14:41;;;;;;;43.28;23.42;;;;;;;;;;5108191;28;20291;-77
2022/10/08 03:17:09;;;;;;;38.22;22.25;;;;;;;;;;5120831;27;20096;-77
2022/10/08 03:19:36;;;;;;;44.90;24.75;;;;;;;;;;5125642;27;20411;-77
2022/10/08 03:22:04;;;;;;;39.08;22.58;;;;;;;;;;5109343;28;20092;-77
2022/10/08 03:24:31;;;;;;;40.08;22.30;;;;;;;;;;5125081;27;20036;-77
2022/10/08 03:26:58;;;;;;;43.35;22.90;;;;;;;;;;5107621;28;20052;-77
2022/10/08 03:29:26;;;;;;;44.95;24.83;;;;;;;;;;5074641;28;20082;-77
2022/10/08 03:31:53;;;;;;;44.55;24.25;;;;;;;;;;5110579;27;20093;-77
2022/10/08 03:34:21;;;;;;;43.67;23.45;;;;;;;;;;5116147;27;20047;-77
2022/10/08 03:36:49;;;;;;;37.45;21.08;;;;;;;;;;5109619;28;20105;-77
2022/10/08 03:39:16;;;;;;;37.85;21.77;;;;;;;;;;5109153;28;20142;-77
2022/10/08 03:41:43;;;;;;;39.05;22.02;;;;;;;;;;5109757;28;20044;-77
2022/10/08 03:44:11;;;;;;;39.47;21.90;;;;;;;;;;5108813;28;20054;-77
2022/10/08 03:46:38;;;;;;;42.60;22.20;;;;;;;;;;5125018;27;20050;-77
2022/10/08 03:49:05;;;;;;;39.05;21.92;;;;;;;;;;5126362;27;20514;-77
2022/10/08 03:51:34;;;;;;;38.53;21.73;;;;;;;;;;5121076;27;20051;-75
2022/10/08 03:54:01;;;;;;;37.30;21.10;;;;;;;;;;5129645;27;20122;-77
2022/10/08 03:56:28;;;;;;;39.80;20.92;;;;;;;;;;5119529;27;20489;-77
2022/10/08 03:58:56;;;;;;;38.50;21.65;;;;;;;;;;5108894;28;20134;-77
2022/10/08 04:01:24;;;;;;;38.88;20.58;;;;;;;;;;5108848;28;20168;-77
2022/10/08 04:03:51;;;;;;;35.20;20.65;;;;;;;;;;5106445;28;20412;-77
2022/10/08 04:06:19;;;;;;;39.30;21.63;;;;;;;;;;5117100;27;20050;-77
2022/10/08 04:08:46;;;;;;;37.45;21.63;;;;;;;;;;5129447;27;20098;-77
2022/10/08 04:11:15;;;;;;;34.90;20.55;;;;;;;;;;5128060;27;20118;-77
2022/10/08 04:13:42;;;;;;;38.70;21.00;;;;;;;;;;5119586;27;20054;-77
2022/10/08 04:16:11;;;;;;;40.25;21.85;;;;;;;;;;5108404;28;20386;-77
2022/10/08 04:18:39;;;;;;;41.17;21.75;;;;;;;;;;5124289;27;20108;-77
2022/10/08 04:21:07;;;;;;;40.00;21.90;;;;;;;;;;5105981;28;20051;-76
2022/10/08 04:23:35;;;;;;;41.38;20.92;;;;;;;;;;5106576;28;20488;-77
2022/10/08 04:26:03;;;;;;;39.20;21.95;;;;;;;;;;5096333;28;20036;-77
2022/10/08 04:28:30;;;;;;;36.67;21.02;;;;;;;;;;5097617;28;20111;-76
2022/10/08 04:31:05;;;;;;;35.53;20.90;;;;;;;;;;5098772;28;20048;-77
2022/10/08 04:33:34;;;;;;;36.50;20.83;;;;;;;;;;5099576;28;20054;-76
2022/10/08 04:36:01;;;;;;;40.70;22.02;;;;;;;;;;5095383;28;20044;-77
2022/10/08 04:38:28;;;;;;;36.28;20.75;;;;;;;;;;5100202;28;20067;-77
2022/10/08 04:41:06;;;;;;;32.95;19.88;;;;;;;;;;5099925;28;20138;-76
2022/10/08 04:43:34;;;;;;;32.83;18.92;;;;;;;;;;5082110;28;20412;-77
2022/10/08 04:46:01;;;;;;;35.22;20.27;;;;;;;;;;5110554;27;20046;-77
2022/10/08 04:48:29;;;;;;;36.17;21.55;;;;;;;;;;5101593;28;20047;-77
2022/10/08 04:50:57;;;;;;;35.03;20.10;;;;;;;;;;5114425;27;20126;-77
2022/10/08 04:53:24;;;;;;;32.53;19.88;;;;;;;;;;5101466;28;20036;-75
2022/10/08 04:55:55;;;;;;;36.55;21.33;;;;;;;;;;5111908;28;20082;-77
2022/10/08 04:58:24;;;;;;;38.33;21.53;;;;;;;;;;5103005;28;20059;-77
2022/10/08 05:00:51;;;;;;;40.55;21.33;;;;;;;;;;5096479;28;20155;-77
2022/10/08 05:03:18;;;;;;;37.17;21.02;;;;;;;;;;5095858;28;20047;-77
2022/10/08 05:05:46;;;;;;;34.38;20.27;;;;;;;;;;5103140;28;20044;-77
2022/10/08 05:08:13;;;;;;;37.08;20.95;;;;;;;;;;5098657;28;20043;-77
2022/10/08 05:10:47;;;;;;;35.13;20.95;;;;;;;;;;5101195;28;20485;-77
2022/10/08 05:13:14;;;;;;;34.65;19.55;;;;;;;;;;5097167;28;20120;-77
2022/10/08 05:15:41;;;;;;;32.47;19.92;;;;;;;;;;5103461;28;20047;-77
2022/10/08 05:18:08;;;;;;;31.67;19.92;;;;;;;;;;5101826;28;20558;-77
2022/10/08 05:20:36;;;;;;;30.70;18.70;;;;;;;;;;5104237;28;20057;-77
2022/10/08 05:23:03;;;;;;;32.42;19.65;;;;;;;;;;5087583;28;20052;-78
2022/10/08 05:25:32;;;;;;;33.55;19.75;;;;;;;;;;5046532;28;20050;-78
2022/10/08 05:27:59;;;;;;;31.15;19.08;;;;;;;;;;5097067;28;20525;-77
2022/10/08 05:30:26;;;;;;;32.13;20.30;;;;;;;;;;5097637;28;20032;-77
2022/10/08 05:32:53;;;;;;;33.15;19.77;;;;;;;;;;5097451;28;20040;-77
2022/10/08 05:35:21;;;;;;;37.38;20.05;;;;;;;;;;5105631;27;20299;-77
2022/10/08 05:37:48;;;;;;;29.33;19.27;;;;;;;;;;5103494;28;20096;-78
2022/10/08 05:40:15;;;;;;;29.80;19.10;;;;;;;;;;5102047;28;20036;-77
2022/10/08 05:42:43;;;;;;;31.55;19.83;;;;;;;;;;5114132;27;20457;-77
2022/10/08 05:45:11;;;;;;;30.17;19.88;;;;;;;;;;5108807;27;20150;-77
2022/10/08 05:47:38;;;;;;;32.75;20.48;;;;;;;;;;5103374;28;20485;-77
2022/10/08 05:50:06;;;;;;;27.77;18.75;;;;;;;;;;5104006;28;20127;-78
2022/10/08 05:52:33;;;;;;;31.10;20.55;;;;;;;;;;5101411;28;20058;-77
2022/10/08 05:55:00;;;;;;;30.33;19.48;;;;;;;;;;5099494;28;20139;-77
2022/10/08 05:57:27;;;;;;;31.67;20.13;;;;;;;;;;5106406;27;20349;-77
2022/10/08 05:59:55;;;;;;;30.42;20.10;;;;;;;;;;5096506;28;20501;-76
2022/10/08 06:02:22;;;;;;;34.25;20.85;;;;;;;;;;5088949;28;20513;-77
2022/10/08 06:04:49;;;;;;;35.40;21.10;;;;;;;;;;5090424;28;20408;-77
2022/10/08 06:07:16;;;;;;;29.00;19.38;;;;;;;;;;5111928;27;20121;-77
2022/10/08 06:09:44;;;;;;;34.90;21.13;;;;;;;;;;5129480;27;20104;-77
2022/10/08 06:12:12;;;;;;;36.70;21.48;;;;;;;;;;5122413;27;20146;-77
2022/10/08 06:14:40;;;;;;;39.55;22.63;;;;;;;;;;5120529;27;20408;-77
2022/10/08 06:17:07;;;;;;;38.92;21.50;;;;;;;;;;5117646;27;20126;-77
2022/10/08 06:19:36;;;;;;;29.92;19.52;;;;;;;;;;5109101;28;20039;-77
2022/10/08 06:22:04;;;;;;;34.70;20.77;;;;;;;;;;5108603;28;20546;-77
2022/10/08 06:24:31;;;;;;;33.50;20.60;;;;;;;;;;5099646;28;20566;-77
2022/10/08 06:26:58;;;;;;;59.53;41.83;;;;;;;;;;5089220;28;20071;-77
2022/10/08 06:29:25;;;;;;;50.00;34.50;;;;;;;;;;5102258;28;20567;-77
2022/10/08 06:31:53;;;;;;;41.08;31.05;;;;;;;;;;5112374;27;20134;-82
2022/10/08 06:34:20;;;;;;;41.83;24.27;;;;;;;;;;5130477;27;20087;-77
2022/10/08 06:36:47;;;;;;;40.58;23.52;;;;;;;;;;5119457;27;20047;-77
2022/10/08 06:39:16;;;;;;;34.80;23.40;;;;;;;;;;5107514;28;20050;-76
2022/10/08 06:41:43;;;;;;;33.30;24.58;;;;;;;;;;5111697;27;20366;-77
2022/10/08 06:44:12;;;;;;;35.13;22.35;;;;;;;;;;5107750;28;20497;-77
2022/10/08 06:46:40;;;;;;;35.67;20.77;;;;;;;;;;5098357;28;20134;-77
2022/10/08 06:49:07;;;;;;;30.42;19.65;;;;;;;;;;5099808;28;20130;-77
2022/10/08 06:51:34;;;;;;;30.48;20.30;;;;;;;;;;5107789;28;20069;-77
2022/10/08 06:54:02;;;;;;;31.92;20.33;;;;;;;;;;5108800;28;20043;-77
2022/10/08 06:56:35;;;;;;;32.80;21.65;;;;;;;;;;5107178;28;20130;-77
2022/10/08 06:59:03;;;;;;;30.30;19.67;;;;;;;;;;5221559;22;20059;-74
2022/10/08 07:01:31;;;;;;;29.30;18.88;;;;;;;;;;5060128;28;20037;-74
2022/10/08 07:04:00;;;;;;;27.67;18.33;;;;;;;;;;5044298;28;20542;-73
2022/10/08 07:06:28;;;;;;;30.17;18.85;;;;;;;;;;5047049;28;20478;-73
2022/10/08 07:08:57;;;;;;;25.23;17.92;;;;;;;;;;5020493;28;20049;-73
2022/10/08 07:11:25;;;;;;;25.83;18.55;;;;;;;;;;5026179;28;20049;-74
2022/10/08 07:13:54;;;;;;;29.15;19.52;;;;;;;;;;5035799;28;20041;-74
2022/10/08 07:16:22;;;;;;;26.55;17.98;;;;;;;;;;5045758;28;20037;-74
2022/10/08 07:18:51;;;;;;;25.23;18.58;;;;;;;;;;5025687;28;20328;-74
2022/10/08 07:21:19;;;;;;;27.08;18.10;;;;;;;;;;5041432;28;20041;-74
2022/10/08 07:23:47;;;;;;;24.30;18.15;;;;;;;;;;5011926;28;20048;-74
2022/10/08 07:26:16;;;;;;;24.25;17.58;;;;;;;;;;5025028;28;20478;-74
2022/10/08 07:29:00;;;;;;;26.95;17.98;;;;;;;;;;5024360;28;20503;-74
2022/10/08 07:31:29;;;;;;;25.42;18.20;;;;;;;;;;5041408;28;20071;-74
2022/10/08 07:33:57;;;;;;;29.17;18.35;;;;;;;;;;5008119;28;20052;-74
2022/10/08 07:36:25;;;;;;;25.90;18.15;;;;;;;;;;5030446;28;20033;-74
2022/10/08 07:38:53;;;;;;;25.63;17.67;;;;;;;;;;5042206;28;20040;-74
2022/10/08 07:41:20;;;;;;;28.60;19.17;;;;;;;;;;5012106;28;20045;-75
2022/10/08 07:43:57;;;;;;;27.85;18.75;;;;;;;;;;5023297;28;20053;-75
2022/10/08 07:46:25;;;;;;;49.60;43.58;;;;;;;;;;5027534;28;20464;-76
2022/10/08 07:48:55;;;;;;;29.83;19.90;;;;;;;;;;5053161;28;20127;-76
2022/10/08 07:51:23;;;;;;;27.20;18.25;;;;;;;;;;5030221;28;20055;-76
2022/10/08 07:53:50;;;;;;;29.85;22.88;;;;;;;;;;5044278;28;20122;-76
2022/10/08 07:56:18;;;;;;;24.20;18.08;;;;;;;;;;5034216;28;20042;-76
2022/10/08 07:58:46;;;;;;;25.20;17.70;;;;;;;;;;5042614;28;20075;-75
2022/10/08 08:01:14;;;;;;;26.88;18.50;;;;;;;;;;5024479;28;20045;-76
2022/10/08 08:03:42;;;;;;;30.95;19.40;;;;;;;;;;5018739;28;20049;-76
2022/10/08 08:06:11;;;;;;;24.40;17.80;;;;;;;;;;5044034;28;20113;-76
2022/10/08 08:08:39;;;;;;;26.83;17.75;;;;;;;;;;5045728;28;20047;-76
2022/10/08 08:11:08;;;;;;;27.55;20.08;;;;;;;;;;5011905;28;20056;-76
2022/10/08 08:13:36;;;;;;;26.38;20.13;;;;;;;;;;5038396;28;20091;-76
2022/10/08 08:16:06;;;;;;;30.00;19.88;;;;;;;;;;5037958;28;20374;-76
2022/10/08 08:18:34;;;;;;;22.02;17.33;;;;;;;;;;5043692;28;20552;-76
2022/10/08 08:21:03;;;;;;;26.02;19.05;;;;;;;;;;5041104;28;20049;-75
2022/10/08 08:23:31;;;;;;;25.10;17.77;;;;;;;;;;5040191;28;20511;-76
2022/10/08 08:26:02;;;;;;;23.67;17.80;;;;;;;;;;5043990;28;20037;-76
2022/10/08 08:28:29;;;;;;;23.70;17.88;;;;;;;;;;5046479;28;20041;-76
2022/10/08 08:31:13;;;;;;;23.35;17.45;;;;;;;;;;5041918;23;20036;-71
2022/10/08 08:33:42;;;;;;;22.83;16.42;;;;;;;;;;5025020;28;20437;-73
2022/10/08 08:36:10;;;;;;;21.42;16.25;;;;;;;;;;5046509;28;20037;-76
2022/10/08 08:38:37;;;;;;;22.05;17.25;;;;;;;;;;5044516;28;20040;-75
2022/10/08 08:41:27;;;;;;;31.05;23.88;;;;;;;;;;5011860;28;20049;-76
2022/10/08 08:43:59;;;;;;;26.67;18.85;;;;;;;;;;4993943;28;20152;-76
2022/10/08 08:46:27;;;;;;;17.33;14.68;;;;;;;;;;5028659;28;20568;-75
2022/10/08 08:48:56;;;;;;;23.30;14.60;;;;;;;;;;5029324;28;20095;-76
2022/10/08 08:51:23;;;;;;;19.90;14.80;;;;;;;;;;5028621;28;20056;-76
2022/10/08 08:53:51;;;;;;;19.65;15.35;;;;;;;;;;5045399;28;20471;-76
2022/10/08 08:56:19;;;;;;;15.55;13.43;;;;;;;;;;5028975;28;20575;-76
2022/10/08 08:58:57;;;;;;;20.50;14.65;;;;;;;;;;5046586;28;20049;-76
2022/10/08 09:01:28;;;;;;;18.05;15.57;;;;;;;;;;5027759;28;20056;-73
2022/10/08 09:03:58;;;;;;;19.00;14.60;;;;;;;;;;5013910;28;20529;-75
2022/10/08 09:06:25;;;;;;;21.38;15.82;;;;;;;;;;5044613;28;20367;-76
2022/10/08 09:09:12;;;;;;;18.65;14.40;;;;;;;;;;5047800;28;20536;-75
2022/10/08 09:11:41;;;;;;;17.13;12.90;;;;;;;;;;5048375;28;20088;-75
2022/10/08 09:14:13;;;;;;;19.63;13.88;;;;;;;;;;5048581;28;20592;-76
2022/10/08 09:16:40;;;;;;;21.83;14.82;;;;;;;;;;5028692;28;20064;-75
2022/10/08 09:19:08;;;;;;;18.40;14.77;;;;;;;;;;5051686;28;20041;-76
2022/10/08 09:21:36;;;;;;;18.42;14.93;;;;;;;;;;5051128;28;20045;-74
2022/10/08 09:24:03;;;;;;;18.95;14.85;;;;;;;;;;5048218;28;20523;-75
2022/10/08 09:26:32;;;;;;;22.85;15.30;;;;;;;;;;5050396;28;20033;-75
2022/10/08 09:29:00;;;;;;;19.65;14.60;;;;;;;;;;5047980;28;20079;-75
2022/10/08 09:31:30;;;;;;;15.90;14.05;;;;;;;;;;5048695;28;20068;-74
2022/10/08 09:33:59;;;;;;;20.63;15.68;;;;;;;;;;5050328;28;20430;-76
2022/10/08 09:36:30;;;;;;;22.05;15.35;;;;;;;;;;5050433;28;20053;-76
2022/10/08 09:38:58;;;;;;;21.75;14.98;;;;;;;;;;5049989;28;20048;-74
2022/10/08 09:41:27;;;;;;;18.23;14.70;;;;;;;;;;5049062;28;20472;-76
2022/10/08 09:44:09;;;;;;;19.15;14.40;;;;;;;;;;5047704;28;20147;-75
2022/10/08 09:46:36;;;;;;;18.75;15.82;;;;;;;;;;5049355;28;20568;-75
2022/10/08 09:49:20;;;;;;;18.55;15.27;;;;;;;;;;5049557;28;20048;-76
2022/10/08 09:51:49;;;;;;;17.67;14.52;;;;;;;;;;5048127;28;20056;-74
2022/10/08 09:54:29;;;;;;;18.98;15.25;;;;;;;;;;5048381;28;20052;-74
2022/10/08 09:56:57;;;;;;;19.50;14.70;;;;;;;;;;5027124;28;20068;-76
2022/10/08 09:59:26;;;;;;;21.25;16.92;;;;;;;;;;5031237;28;20488;-76
2022/10/08 10:01:54;;;;;;;21.58;16.13;;;;;;;;;;5030897;28;20132;-76
2022/10/08 10:04:36;;;;;;;27.88;20.92;;;;;;;;;;5030609;28;20035;-76
2022/10/08 10:07:04;;;;;;;15.85;12.40;;;;;;;;;;5038811;28;20071;-75
2022/10/08 10:09:37;;;;;;;23.92;17.02;;;;;;;;;;5026345;28;20522;-74
2022/10/08 10:12:04;;;;;;;21.05;17.02;;;;;;;;;;5047808;28;20041;-76
2022/10/08 10:14:42;;;;;;;20.63;16.08;;;;;;;;;;5048155;28;21093;-75
2022/10/08 10:17:28;;;;;;;17.63;14.57;;;;;;;;;;5042446;28;20033;-75
2022/10/08 10:19:59;;;;;;;20.42;15.80;;;;;;;;;;5030699;28;20119;-75
2022/10/08 10:22:28;;;;;;;22.02;16.27;;;;;;;;;;5047262;28;20053;-75
2022/10/08 10:25:00;;;;;;;19.92;16.65;;;;;;;;;;5054005;28;20071;-76
2022/10/08 10:27:34;;;;;;;18.75;15.73;;;;;;;;;;5049874;28;20044;-76
2022/10/08 10:30:09;;;;;;;20.27;15.57;;;;;;;;;;5047577;28;20535;-76
2022/10/08 10:32:39;;;;;;;21.15;15.50;;;;;;;;;;5047853;28;20600;-75
2022/10/08 10:35:12;;;;;;;21.65;15.43;;;;;;;;;;5025322;28;20072;-76
2022/10/08 10:37:44;;;;;;;17.55;14.45;;;;;;;;;;5046729;28;20506;-75
2022/10/08 10:40:11;;;;;;;;;;;;;;;;;;5046509;28;20094;-76
2022/10/08 10:42:57;;;;;;;19.13;15.48;;;;;;;;;;5032242;28;19948;-75
2022/10/08 10:45:27;;;;;;;19.67;15.18;;;;;;;;;;5027966;28;20801;-74
2022/10/08 10:47:54;;;;;;;19.13;15.90;;;;;;;;;;5049041;28;20067;-74
2022/10/08 10:50:42;;;;;;;18.05;15.50;;;;;;;;;;5033285;28;20036;-75
2022/10/08 10:53:21;;;;;;;17.05;15.23;;;;;;;;;;5009966;28;20045;-75
2022/10/08 10:56:10;;;;;;;20.80;15.35;;;;;;;;;;5045427;28;20530;-74
2022/10/08 10:58:43;;;;;;;20.58;15.80;;;;;;;;;;5045195;28;20041;-74
2022/10/08 11:01:28;;;;;;;18.38;14.45;;;;;;;;;;5043050;28;20110;-76
2022/10/08 11:04:15;;;;;;;19.33;16.67;;;;;;;;;;5029733;28;20132;-75
2022/10/08 11:06:58;;;;;;;18.83;15.07;;;;;;;;;;5041353;28;20414;-75
2022/10/08 11:09:37;;;;;;;19.52;16.40;;;;;;;;;;5044495;28;20052;-74
2022/10/08 11:12:37;;;;;;;20.42;16.65;;;;;;;;;;5045777;28;21554;-76
2022/10/08 11:15:22;;;;;;;20.58;16.73;;;;;;;;;;4993123;28;20106;-74
2022/10/08 11:17:53;;;;;;;22.00;16.75;;;;;;;;;;5027691;28;20098;-76
2022/10/08 11:20:23;;;;;;;18.50;15.02;;;;;;;;;;5026337;28;20048;-76
2022/10/08 11:22:56;;;;;;;15.52;13.20;;;;;;;;;;5045723;28;20718;-76
2022/10/08 11:25:35;;;;;;;19.38;16.38;;;;;;;;;;5046747;28;20045;-76
2022/10/08 11:28:31;;;;;;;21.23;15.50;;;;;;;;;;5048644;28;20935;-76
2022/10/08 11:31:17;;;;;;;19.80;16.20;;;;;;;;;;5039517;28;20914;-75
2022/10/08 11:33:45;;;;;;;20.23;15.63;;;;;;;;;;5046749;28;20037;-78
2022/10/08 11:36:33;;;;;;;18.35;15.60;;;;;;;;;;5046772;28;20044;-76
2022/10/08 11:39:03;;;;;;;17.42;15.23;;;;;;;;;;5043697;28;20043;-75
2022/10/08 11:41:43;;;;;;;19.88;15.70;;;;;;;;;;5045975;28;20073;-77
2022/10/08 11:44:11;;;;;;;18.27;15.00;;;;;;;;;;5048523;28;20060;-76
2022/10/08 11:46:38;;;;;;;18.15;15.45;;;;;;;;;;5045180;28;20048;-76
2022/10/08 11:49:11;;;;;;;17.40;15.50;;;;;;;;;;5030064;28;20037;-76
2022/10/08 11:51:40;;;;;;;20.17;15.60;;;;;;;;;;5046599;28;20127;-75
2022/10/08 11:54:37;;;;;;;17.00;14.98;;;;;;;;;;5044794;28;20052;-74
2022/10/08 11:57:12;;;;;;;19.90;14.90;;;;;;;;;;5031714;28;20051;-75
2022/10/08 11:59:41;;;;;;;18.30;16.20;;;;;;;;;;5048327;28;20128;-76
2022/10/08 12:02:37;;;;;;;20.02;15.90;;;;;;;;;;5046038;28;20116;-74
2022/10/08 12:05:23;;;;;;;23.45;15.90;;;;;;;;;;5009643;28;20071;-76
2022/10/08 12:07:55;;;;;;;17.23;15.43;;;;;;;;;;5045671;28;20090;-75
2022/10/08 12:10:39;;;;;;;20.25;16.30;;;;;;;;;;5048052;28;20094;-75
2022/10/08 12:13:09;;;;;;;18.42;15.60;;;;;;;;;;5044564;28;20040;-75
2022/10/08 12:15:43;;;;;;;16.90;15.18;;;;;;;;;;5046449;28;20060;-76
2022/10/08 12:18:16;;;;;;;22.30;16.55;;;;;;;;;;5046138;28;20498;-75
2022/10/08 12:20:43;;;;;;;20.67;16.73;;;;;;;;;;5028914;28;20087;-74
2022/10/08 12:23:19;;;;;;;18.73;16.17;;;;;;;;;;5045161;28;20040;-74
2022/10/08 12:25:48;;;;;;;18.35;15.10;;;;;;;;;;5045504;28;20053;-76
2022/10/08 12:28:18;;;;;;;20.98;15.82;;;;;;;;;;5044127;28;20124;-75
2022/10/08 12:30:49;;;;;;;17.88;15.98;;;;;;;;;;5030003;28;20414;-76
2022/10/08 12:33:16;;;;;;;16.88;14.82;;;;;;;;;;5047694;28;20301;-75
2022/10/08 12:35:43;;;;;;;19.20;16.70;;;;;;;;;;5044357;28;20041;-75
2022/10/08 12:38:26;;;;;;;17.63;15.75;;;;;;;;;;5047154;28;20043;-74
2022/10/08 12:40:56;;;;;;;20.80;14.60;;;;;;;;;;5047407;28;20569;-74
2022/10/08 12:43:34;;;;;;;15.85;14.05;;;;;;;;;;5049069;28;20506;-75
2022/10/08 12:46:20;;;;;;;16.52;14.73;;;;;;;;;;5047624;28;20052;-75
2022/10/08 12:48:57;;;;;;;19.15;15.27;;;;;;;;;;5050553;28;20453;-74
2022/10/08 12:51:44;;;;;;;17.63;15.45;;;;;;;;;;5032112;28;20049;-75
2022/10/08 12:54:22;;;;;;;17.23;15.07;;;;;;;;;;5033047;28;20042;-75
2022/10/08 12:56:50;;;;;;;16.65;13.90;;;;;;;;;;5050837;28;20049;-74
2022/10/08 12:59:19;;;;;;;13.85;12.40;;;;;;;;;;5073408;22;20144;-76
2022/10/08 13:01:47;;;;;;;15.25;13.13;;;;;;;;;;5052038;28;20044;-76
2022/10/08 13:04:21;;;;;;;15.43;13.35;;;;;;;;;;5051723;28;20095;-77
2022/10/08 13:06:49;;;;;;;18.35;12.82;;;;;;;;;;5051208;28;20091;-76
2022/10/08 13:09:24;;;;;;;14.95;13.32;;;;;;;;;;5042883;28;20416;-76
2022/10/08 13:11:52;;;;;;;17.02;13.55;;;;;;;;;;5054248;28;20037;-76
2022/10/08 13:14:28;;;;;;;15.23;13.63;;;;;;;;;;5071771;28;20083;-75
2022/10/08 13:16:56;;;;;;;14.43;13.02;;;;;;;;;;5070023;28;20119;-76
2022/10/08 13:19:44;;;;;;;13.93;12.57;;;;;;;;;;5037258;28;20143;-76
2022/10/08 13:22:22;;;;;;;14.00;12.60;;;;;;;;;;5052547;28;20110;-76
2022/10/08 13:24:50;;;;;;;14.95;12.68;;;;;;;;;;5070814;28;20102;-77
2022/10/08 13:27:21;;;;;;;15.65;12.73;;;;;;;;;;5071153;28;20592;-76
2022/10/08 13:29:49;;;;;;;19.27;12.25;;;;;;;;;;5071243;28;20040;-76
2022/10/08 13:32:19;;;;;;;12.95;11.65;;;;;;;;;;5046743;28;20052;-77
2022/10/08 13:34:48;;;;;;;16.13;12.48;;;;;;;;;;5053455;28;20098;-76
2022/10/08 13:37:22;;;;;;;13.10;11.85;;;;;;;;;;5033638;28;20041;-76
2022/10/08 13:39:53;;;;;;;16.50;12.75;;;;;;;;;;5039841;28;20040;-76
2022/10/08 13:42:23;;;;;;;15.35;12.52;;;;;;;;;;5070903;28;20131;-76
2022/10/08 13:44:50;;;;;;;15.15;12.85;;;;;;;;;;5071154;28;20212;-77
2022/10/08 13:47:19;;;;;;;14.30;12.95;;;;;;;;;;5034180;28;20052;-76
2022/10/08 13:49:47;;;;;;;13.65;12.35;;;;;;;;;;5037735;28;20056;-77
2022/10/08 13:52:15;;;;;;;14.18;12.02;;;;;;;;;;5057967;28;20152;-76
2022/10/08 13:54:42;;;;;;;13.63;12.23;;;;;;;;;;5015416;28;20045;-76
2022/10/08 13:57:09;;;;;;;14.65;11.63;;;;;;;;;;5052526;28;20135;-75
2022/10/08 13:59:37;;;;;;;15.27;12.85;;;;;;;;;;5037954;28;20044;-76
2022/10/08 14:02:04;;;;;;;13.90;12.50;;;;;;;;;;5059218;28;20048;-75
2022/10/08 14:04:32;;;;;;;18.73;12.80;;;;;;;;;;5050418;28;20072;-76
2022/10/08 14:07:00;;;;;;;15.60;12.35;;;;;;;;;;5052244;28;20131;-77
2022/10/08 14:09:28;;;;;;;12.25;10.88;;;;;;;;;;5050745;28;20124;-77
2022/10/08 14:11:58;;;;;;;13.63;10.65;;;;;;;;;;5051296;28;20089;-76
2022/10/08 14:14:26;;;;;;;11.77;9.50;;;;;;;;;;5054545;28;20040;-77
2022/10/08 14:16:53;;;;;;;15.13;10.20;;;;;;;;;;5052295;28;20107;-76
2022/10/08 14:19:21;;;;;;;10.65;9.00;;;;;;;;;;5069791;28;20040;-76
2022/10/08 14:21:49;;;;;;;9.57;8.15;;;;;;;;;;5031872;28;20256;-78
2022/10/08 14:24:16;;;;;;;15.15;8.55;;;;;;;;;;5052194;28;20064;-76
2022/10/08 14:26:44;;;;;;;8.60;7.75;;;;;;;;;;5070356;28;20132;-76
2022/10/08 14:29:11;;;;;;;9.70;7.80;;;;;;;;;;5070399;28;20424;-78
2022/10/08 14:31:38;;;;;;;9.80;8.30;;;;;;;;;;5069970;28;20064;-77
2022/10/08 14:34:06;;;;;;;12.15;8.18;;;;;;;;;;5069544;28;20048;-76
2022/10/08 14:36:39;;;;;;;15.00;8.43;;;;;;;;;;5051916;28;20502;-78
2022/10/08 14:39:08;;;;;;;11.10;7.70;;;;;;;;;;5052266;28;20098;-77